sensor_id;sensor_type;location;lat;lon;timestamp;P1;durP1;ratioP1;P2;durP2;ratioP2
665;SDS011;315;48.738;9.126;2024-01-11T00:00:40;46.07;;;28.57;;
665;SDS011;315;48.738;9.126;2024-01-11T00:03:06;47.20;;;26.03;;
665;SDS011;315;48.738;9.126;2024-01-11T00:05:31;37.00;;;23.97;;
665;SDS011;315;48.738;9.126;2024-01-11T00:07:56;42.93;;;27.43;;
665;SDS011;315;48.738;9.126;2024-01-11T00:10:22;38.70;;;26.33;;
665;SDS011;315;48.738;9.126;2024-01-11T00:12:48;40.20;;;26.77;;
665;SDS011;315;48.738;9.126;2024-01-11T00:15:13;36.17;;;23.57;;
665;SDS011;315;48.738;9.126;2024-01-11T00:17:39;50.20;;;27.37;;
665;SDS011;315;48.738;9.126;2024-01-11T00:20:05;49.97;;;27.70;;
665;SDS011;315;48.738;9.126;2024-01-11T00:22:31;49.23;;;27.13;;
665;SDS011;315;48.738;9.126;2024-01-11T00:24:57;40.53;;;27.97;;
665;SDS011;315;48.738;9.126;2024-01-11T00:27:22;37.27;;;24.57;;
665;SDS011;315;48.738;9.126;2024-01-11T00:29:48;40.77;;;26.50;;
665;SDS011;315;48.738;9.126;2024-01-11T00:32:14;40.00;;;24.87;;
665;SDS011;315;48.738;9.126;2024-01-11T00:34:39;45.63;;;26.77;;
665;SDS011;315;48.738;9.126;2024-01-11T00:37:05;50.73;;;25.77;;
665;SDS011;315;48.738;9.126;2024-01-11T00:39:30;47.17;;;27.17;;
665;SDS011;315;48.738;9.126;2024-01-11T00:41:56;39.43;;;26.47;;
665;SDS011;315;48.738;9.126;2024-01-11T00:44:21;41.07;;;24.60;;
665;SDS011;315;48.738;9.126;2024-01-11T00:46:47;44.10;;;26.27;;
665;SDS011;315;48.738;9.126;2024-01-11T00:49:12;45.17;;;27.90;;
665;SDS011;315;48.738;9.126;2024-01-11T00:51:38;43.37;;;25.77;;
665;SDS011;315;48.738;9.126;2024-01-11T00:54:04;42.10;;;26.73;;
665;SDS011;315;48.738;9.126;2024-01-11T00:56:30;46.83;;;27.83;;
665;SDS011;315;48.738;9.126;2024-01-11T00:58:55;36.00;;;23.10;;
665;SDS011;315;48.738;9.126;2024-01-11T01:01:20;44.33;;;25.90;;
665;SDS011;315;48.738;9.126;2024-01-11T01:03:46;39.20;;;26.33;;
665;SDS011;315;48.738;9.126;2024-01-11T01:06:12;53.50;;;28.17;;
665;SDS011;315;48.738;9.126;2024-01-11T01:08:37;47.77;;;25.97;;
665;SDS011;315;48.738;9.126;2024-01-11T01:11:03;47.87;;;26.17;;
665;SDS011;315;48.738;9.126;2024-01-11T01:13:28;46.23;;;28.50;;
665;SDS011;315;48.738;9.126;2024-01-11T01:15:54;47.43;;;28.53;;
665;SDS011;315;48.738;9.126;2024-01-11T01:18:20;38.80;;;26.30;;
665;SDS011;315;48.738;9.126;2024-01-11T01:20:45;41.30;;;26.10;;
665;SDS011;315;48.738;9.126;2024-01-11T01:23:11;45.97;;;24.47;;
665;SDS011;315;48.738;9.126;2024-01-11T01:25:36;38.73;;;24.00;;
665;SDS011;315;48.738;9.126;2024-01-11T01:28:02;41.17;;;25.37;;
665;SDS011;315;48.738;9.126;2024-01-11T01:30:27;43.90;;;26.57;;
665;SDS011;315;48.738;9.126;2024-01-11T01:32:53;49.60;;;28.97;;
665;SDS011;315;48.738;9.126;2024-01-11T01:35:19;40.63;;;26.63;;
665;SDS011;315;48.738;9.126;2024-01-11T01:37:44;41.17;;;26.07;;
665;SDS011;315;48.738;9.126;2024-01-11T01:40:11;38.83;;;25.27;;
665;SDS011;315;48.738;9.126;2024-01-11T01:42:41;49.63;;;27.83;;
665;SDS011;315;48.738;9.126;2024-01-11T01:45:09;41.33;;;26.90;;
665;SDS011;315;48.738;9.126;2024-01-11T01:47:34;39.33;;;26.50;;
665;SDS011;315;48.738;9.126;2024-01-11T01:50:00;40.23;;;26.17;;
665;SDS011;315;48.738;9.126;2024-01-11T01:52:26;46.60;;;26.27;;
665;SDS011;315;48.738;9.126;2024-01-11T01:54:52;52.90;;;28.17;;
665;SDS011;315;48.738;9.126;2024-01-11T01:57:18;40.70;;;25.27;;
665;SDS011;315;48.738;9.126;2024-01-11T01:59:45;42.77;;;27.40;;
665;SDS011;315;48.738;9.126;2024-01-11T02:02:14;39.87;;;24.47;;
665;SDS011;315;48.738;9.126;2024-01-11T02:04:39;43.13;;;25.33;;
665;SDS011;315;48.738;9.126;2024-01-11T02:07:05;48.87;;;26.93;;
665;SDS011;315;48.738;9.126;2024-01-11T02:09:31;40.60;;;23.37;;
665;SDS011;315;48.738;9.126;2024-01-11T02:11:58;42.53;;;27.00;;
665;SDS011;315;48.738;9.126;2024-01-11T02:14:24;37.63;;;23.27;;
665;SDS011;315;48.738;9.126;2024-01-11T02:16:51;38.07;;;24.90;;
665;SDS011;315;48.738;9.126;2024-01-11T02:19:17;45.00;;;27.60;;
665;SDS011;315;48.738;9.126;2024-01-11T02:21:44;45.37;;;26.60;;
665;SDS011;315;48.738;9.126;2024-01-11T02:24:13;46.57;;;24.17;;
665;SDS011;315;48.738;9.126;2024-01-11T02:26:57;41.97;;;24.23;;
665;SDS011;315;48.738;9.126;2024-01-11T02:29:26;46.20;;;27.87;;
665;SDS011;315;48.738;9.126;2024-01-11T02:31:52;46.67;;;26.50;;
665;SDS011;315;48.738;9.126;2024-01-11T02:34:18;39.70;;;24.90;;
665;SDS011;315;48.738;9.126;2024-01-11T02:36:43;41.30;;;25.60;;
665;SDS011;315;48.738;9.126;2024-01-11T02:39:09;43.40;;;27.70;;
665;SDS011;315;48.738;9.126;2024-01-11T02:41:36;54.07;;;28.20;;
665;SDS011;315;48.738;9.126;2024-01-11T02:44:02;40.40;;;24.87;;
665;SDS011;315;48.738;9.126;2024-01-11T02:46:28;43.10;;;26.17;;
665;SDS011;315;48.738;9.126;2024-01-11T02:48:54;44.20;;;26.30;;
665;SDS011;315;48.738;9.126;2024-01-11T02:51:20;41.90;;;24.67;;
665;SDS011;315;48.738;9.126;2024-01-11T02:53:45;47.00;;;27.57;;
665;SDS011;315;48.738;9.126;2024-01-11T02:56:11;42.47;;;26.60;;
665;SDS011;315;48.738;9.126;2024-01-11T02:58:36;38.27;;;25.07;;
665;SDS011;315;48.738;9.126;2024-01-11T03:01:02;36.57;;;23.97;;
665;SDS011;315;48.738;9.126;2024-01-11T03:03:28;38.93;;;26.47;;
665;SDS011;315;48.738;9.126;2024-01-11T03:05:54;39.77;;;25.10;;
665;SDS011;315;48.738;9.126;2024-01-11T03:08:19;43.33;;;24.03;;
665;SDS011;315;48.738;9.126;2024-01-11T03:10:45;44.50;;;27.77;;
665;SDS011;315;48.738;9.126;2024-01-11T03:13:10;43.53;;;25.43;;
665;SDS011;315;48.738;9.126;2024-01-11T03:15:36;42.60;;;26.13;;
665;SDS011;315;48.738;9.126;2024-01-11T03:18:02;41.60;;;24.40;;
665;SDS011;315;48.738;9.126;2024-01-11T03:20:28;45.07;;;25.30;;
665;SDS011;315;48.738;9.126;2024-01-11T03:22:54;44.30;;;27.27;;
665;SDS011;315;48.738;9.126;2024-01-11T03:25:19;45.47;;;27.63;;
665;SDS011;315;48.738;9.126;2024-01-11T03:27:45;47.17;;;26.07;;
665;SDS011;315;48.738;9.126;2024-01-11T03:30:11;42.10;;;26.20;;
665;SDS011;315;48.738;9.126;2024-01-11T03:32:36;40.27;;;26.83;;
665;SDS011;315;48.738;9.126;2024-01-11T03:35:03;47.97;;;25.90;;
665;SDS011;315;48.738;9.126;2024-01-11T03:37:32;46.63;;;26.83;;
665;SDS011;315;48.738;9.126;2024-01-11T03:39:58;45.00;;;26.50;;
665;SDS011;315;48.738;9.126;2024-01-11T03:42:24;42.30;;;24.33;;
665;SDS011;315;48.738;9.126;2024-01-11T03:44:49;43.67;;;26.03;;
665;SDS011;315;48.738;9.126;2024-01-11T03:47:15;51.53;;;27.83;;
665;SDS011;315;48.738;9.126;2024-01-11T03:49:40;44.57;;;26.93;;
665;SDS011;315;48.738;9.126;2024-01-11T03:52:06;50.53;;;26.03;;
665;SDS011;315;48.738;9.126;2024-01-11T03:54:31;40.13;;;25.47;;
665;SDS011;315;48.738;9.126;2024-01-11T03:56:57;39.63;;;26.03;;
665;SDS011;315;48.738;9.126;2024-01-11T03:59:22;38.67;;;24.57;;
665;SDS011;315;48.738;9.126;2024-01-11T04:01:48;38.30;;;23.93;;
665;SDS011;315;48.738;9.126;2024-01-11T04:04:13;43.47;;;26.70;;
665;SDS011;315;48.738;9.126;2024-01-11T04:06:39;40.13;;;26.20;;
665;SDS011;315;48.738;9.126;2024-01-11T04:09:05;43.97;;;26.00;;
665;SDS011;315;48.738;9.126;2024-01-11T04:11:30;43.83;;;25.73;;
665;SDS011;315;48.738;9.126;2024-01-11T04:13:56;38.20;;;24.43;;
665;SDS011;315;48.738;9.126;2024-01-11T04:16:21;42.73;;;26.00;;
665;SDS011;315;48.738;9.126;2024-01-11T04:18:47;40.63;;;24.70;;
665;SDS011;315;48.738;9.126;2024-01-11T04:23:54;44.57;;;24.73;;
665;SDS011;315;48.738;9.126;2024-01-11T04:26:20;46.00;;;26.23;;
665;SDS011;315;48.738;9.126;2024-01-11T04:28:46;43.33;;;26.50;;
665;SDS011;315;48.738;9.126;2024-01-11T04:31:12;44.17;;;25.53;;
665;SDS011;315;48.738;9.126;2024-01-11T04:33:40;48.20;;;26.13;;
665;SDS011;315;48.738;9.126;2024-01-11T04:36:06;44.57;;;29.30;;
665;SDS011;315;48.738;9.126;2024-01-11T04:38:32;43.33;;;27.43;;
665;SDS011;315;48.738;9.126;2024-01-11T04:40:58;43.53;;;25.67;;
665;SDS011;315;48.738;9.126;2024-01-11T04:43:24;42.57;;;28.30;;
665;SDS011;315;48.738;9.126;2024-01-11T04:45:49;43.40;;;25.50;;
665;SDS011;315;48.738;9.126;2024-01-11T04:48:14;36.90;;;24.57;;
665;SDS011;315;48.738;9.126;2024-01-11T04:50:40;41.33;;;26.60;;
665;SDS011;315;48.738;9.126;2024-01-11T04:53:05;42.43;;;25.50;;
665;SDS011;315;48.738;9.126;2024-01-11T04:55:32;51.73;;;26.13;;
665;SDS011;315;48.738;9.126;2024-01-11T04:57:57;51.57;;;26.27;;
665;SDS011;315;48.738;9.126;2024-01-11T05:00:23;46.33;;;28.00;;
665;SDS011;315;48.738;9.126;2024-01-11T05:02:48;48.13;;;27.87;;
665;SDS011;315;48.738;9.126;2024-01-11T05:05:14;43.10;;;26.57;;
665;SDS011;315;48.738;9.126;2024-01-11T05:07:40;45.93;;;27.67;;
665;SDS011;315;48.738;9.126;2024-01-11T05:10:05;38.83;;;23.73;;
665;SDS011;315;48.738;9.126;2024-01-11T05:12:31;42.20;;;25.70;;
665;SDS011;315;48.738;9.126;2024-01-11T05:14:57;40.97;;;25.07;;
665;SDS011;315;48.738;9.126;2024-01-11T05:17:22;41.73;;;25.17;;
665;SDS011;315;48.738;9.126;2024-01-11T05:19:48;46.23;;;28.57;;
665;SDS011;315;48.738;9.126;2024-01-11T05:22:13;41.37;;;25.40;;
665;SDS011;315;48.738;9.126;2024-01-11T05:24:39;40.97;;;24.70;;
665;SDS011;315;48.738;9.126;2024-01-11T05:27:04;44.60;;;25.10;;
665;SDS011;315;48.738;9.126;2024-01-11T05:29:30;40.37;;;26.17;;
665;SDS011;315;48.738;9.126;2024-01-11T05:31:57;37.83;;;24.93;;
665;SDS011;315;48.738;9.126;2024-01-11T05:34:22;39.77;;;23.90;;
665;SDS011;315;48.738;9.126;2024-01-11T05:36:48;35.53;;;23.33;;
665;SDS011;315;48.738;9.126;2024-01-11T05:39:13;41.00;;;25.00;;
665;SDS011;315;48.738;9.126;2024-01-11T05:41:39;46.63;;;25.37;;
665;SDS011;315;48.738;9.126;2024-01-11T05:44:04;41.90;;;24.20;;
665;SDS011;315;48.738;9.126;2024-01-11T05:46:30;38.93;;;24.30;;
665;SDS011;315;48.738;9.126;2024-01-11T05:48:55;38.33;;;24.73;;
665;SDS011;315;48.738;9.126;2024-01-11T05:51:21;38.23;;;24.77;;
665;SDS011;315;48.738;9.126;2024-01-11T05:53:46;46.03;;;28.27;;
665;SDS011;315;48.738;9.126;2024-01-11T05:56:12;41.30;;;25.30;;
665;SDS011;315;48.738;9.126;2024-01-11T05:58:38;47.47;;;26.67;;
665;SDS011;315;48.738;9.126;2024-01-11T06:01:04;48.73;;;27.17;;
665;SDS011;315;48.738;9.126;2024-01-11T06:03:30;47.33;;;25.37;;
665;SDS011;315;48.738;9.126;2024-01-11T06:05:59;45.50;;;26.30;;
665;SDS011;315;48.738;9.126;2024-01-11T06:08:25;37.13;;;24.93;;
665;SDS011;315;48.738;9.126;2024-01-11T06:10:51;52.80;;;25.27;;
665;SDS011;315;48.738;9.126;2024-01-11T06:13:17;43.83;;;27.73;;
665;SDS011;315;48.738;9.126;2024-01-11T06:15:43;51.10;;;28.97;;
665;SDS011;315;48.738;9.126;2024-01-11T06:18:09;48.37;;;27.53;;
665;SDS011;315;48.738;9.126;2024-01-11T06:20:34;43.93;;;28.93;;
665;SDS011;315;48.738;9.126;2024-01-11T06:23:00;44.20;;;27.67;;
665;SDS011;315;48.738;9.126;2024-01-11T06:25:25;43.90;;;25.00;;
665;SDS011;315;48.738;9.126;2024-01-11T06:27:51;38.00;;;25.20;;
665;SDS011;315;48.738;9.126;2024-01-11T06:30:16;46.43;;;24.67;;
665;SDS011;315;48.738;9.126;2024-01-11T06:32:42;41.93;;;23.03;;
665;SDS011;315;48.738;9.126;2024-01-11T06:35:08;46.10;;;27.50;;
665;SDS011;315;48.738;9.126;2024-01-11T06:37:34;43.80;;;26.77;;
665;SDS011;315;48.738;9.126;2024-01-11T06:40:00;48.43;;;27.07;;
665;SDS011;315;48.738;9.126;2024-01-11T06:42:25;37.73;;;23.63;;
665;SDS011;315;48.738;9.126;2024-01-11T06:44:51;37.00;;;25.10;;
665;SDS011;315;48.738;9.126;2024-01-11T06:47:16;40.13;;;26.93;;
665;SDS011;315;48.738;9.126;2024-01-11T06:49:42;38.80;;;24.80;;
665;SDS011;315;48.738;9.126;2024-01-11T06:52:07;38.47;;;26.57;;
665;SDS011;315;48.738;9.126;2024-01-11T06:54:34;45.13;;;28.60;;
665;SDS011;315;48.738;9.126;2024-01-11T06:56:59;44.63;;;27.27;;
665;SDS011;315;48.738;9.126;2024-01-11T06:59:25;40.47;;;25.10;;
665;SDS011;315;48.738;9.126;2024-01-11T07:01:50;47.10;;;26.47;;
665;SDS011;315;48.738;9.126;2024-01-11T07:04:16;50.67;;;26.00;;
665;SDS011;315;48.738;9.126;2024-01-11T07:06:41;38.47;;;24.00;;
665;SDS011;315;48.738;9.126;2024-01-11T07:09:07;45.40;;;27.43;;
665;SDS011;315;48.738;9.126;2024-01-11T07:11:33;49.53;;;27.10;;
665;SDS011;315;48.738;9.126;2024-01-11T07:13:58;54.63;;;29.93;;
665;SDS011;315;48.738;9.126;2024-01-11T07:16:24;49.20;;;25.90;;
665;SDS011;315;48.738;9.126;2024-01-11T07:18:49;52.43;;;27.10;;
665;SDS011;315;48.738;9.126;2024-01-11T07:21:21;56.17;;;29.13;;
665;SDS011;315;48.738;9.126;2024-01-11T07:23:57;43.70;;;25.67;;
665;SDS011;315;48.738;9.126;2024-01-11T07:26:23;55.10;;;28.60;;
665;SDS011;315;48.738;9.126;2024-01-11T07:28:50;52.70;;;29.50;;
665;SDS011;315;48.738;9.126;2024-01-11T07:31:16;53.57;;;27.90;;
665;SDS011;315;48.738;9.126;2024-01-11T07:33:41;49.17;;;28.27;;
665;SDS011;315;48.738;9.126;2024-01-11T07:36:07;48.43;;;28.40;;
665;SDS011;315;48.738;9.126;2024-01-11T07:38:34;48.77;;;29.27;;
665;SDS011;315;48.738;9.126;2024-01-11T07:40:59;43.20;;;28.17;;
665;SDS011;315;48.738;9.126;2024-01-11T07:43:26;47.47;;;28.87;;
665;SDS011;315;48.738;9.126;2024-01-11T07:45:53;41.40;;;24.90;;
665;SDS011;315;48.738;9.126;2024-01-11T07:48:19;52.80;;;30.73;;
665;SDS011;315;48.738;9.126;2024-01-11T07:50:45;48.27;;;29.87;;
665;SDS011;315;48.738;9.126;2024-01-11T07:53:10;55.10;;;32.37;;
665;SDS011;315;48.738;9.126;2024-01-11T07:55:36;51.17;;;30.50;;
665;SDS011;315;48.738;9.126;2024-01-11T07:58:03;54.10;;;30.97;;
665;SDS011;315;48.738;9.126;2024-01-11T08:00:29;55.97;;;33.83;;
665;SDS011;315;48.738;9.126;2024-01-11T08:02:54;43.90;;;28.63;;
665;SDS011;315;48.738;9.126;2024-01-11T08:05:19;52.77;;;31.00;;
665;SDS011;315;48.738;9.126;2024-01-11T08:07:45;46.87;;;29.00;;
665;SDS011;315;48.738;9.126;2024-01-11T08:10:10;45.27;;;30.93;;
665;SDS011;315;48.738;9.126;2024-01-11T08:12:36;45.17;;;30.17;;
665;SDS011;315;48.738;9.126;2024-01-11T08:15:02;49.90;;;31.57;;
665;SDS011;315;48.738;9.126;2024-01-11T08:17:28;44.40;;;32.07;;
665;SDS011;315;48.738;9.126;2024-01-11T08:19:53;68.00;;;44.37;;
665;SDS011;315;48.738;9.126;2024-01-11T08:22:21;52.53;;;33.07;;
665;SDS011;315;48.738;9.126;2024-01-11T08:24:47;51.73;;;31.70;;
665;SDS011;315;48.738;9.126;2024-01-11T08:27:12;49.83;;;33.77;;
665;SDS011;315;48.738;9.126;2024-01-11T08:29:40;43.80;;;30.70;;
665;SDS011;315;48.738;9.126;2024-01-11T08:32:05;50.20;;;33.43;;
665;SDS011;315;48.738;9.126;2024-01-11T08:34:31;51.63;;;31.93;;
665;SDS011;315;48.738;9.126;2024-01-11T08:36:58;44.87;;;32.87;;
665;SDS011;315;48.738;9.126;2024-01-11T08:39:23;43.17;;;32.50;;
665;SDS011;315;48.738;9.126;2024-01-11T08:41:49;52.60;;;34.33;;
665;SDS011;315;48.738;9.126;2024-01-11T08:44:14;47.40;;;36.60;;
665;SDS011;315;48.738;9.126;2024-01-11T08:46:40;51.67;;;35.70;;
665;SDS011;315;48.738;9.126;2024-01-11T08:49:06;46.60;;;34.67;;
665;SDS011;315;48.738;9.126;2024-01-11T08:51:31;47.60;;;33.73;;
665;SDS011;315;48.738;9.126;2024-01-11T08:53:57;47.67;;;34.60;;
665;SDS011;315;48.738;9.126;2024-01-11T08:56:23;49.27;;;34.47;;
665;SDS011;315;48.738;9.126;2024-01-11T08:58:48;45.37;;;34.40;;
665;SDS011;315;48.738;9.126;2024-01-11T09:01:14;44.10;;;32.57;;
665;SDS011;315;48.738;9.126;2024-01-11T09:03:40;43.13;;;34.03;;
665;SDS011;315;48.738;9.126;2024-01-11T09:06:05;45.13;;;35.87;;
665;SDS011;315;48.738;9.126;2024-01-11T09:08:31;43.70;;;34.53;;
665;SDS011;315;48.738;9.126;2024-01-11T09:10:57;41.70;;;33.53;;
665;SDS011;315;48.738;9.126;2024-01-11T09:13:23;47.50;;;34.80;;
665;SDS011;315;48.738;9.126;2024-01-11T09:15:50;42.07;;;34.37;;
665;SDS011;315;48.738;9.126;2024-01-11T09:18:16;39.87;;;31.40;;
665;SDS011;315;48.738;9.126;2024-01-11T09:20:43;45.47;;;33.57;;
665;SDS011;315;48.738;9.126;2024-01-11T09:23:08;44.60;;;36.27;;
665;SDS011;315;48.738;9.126;2024-01-11T09:25:34;43.70;;;35.10;;
665;SDS011;315;48.738;9.126;2024-01-11T09:28:00;42.00;;;34.50;;
665;SDS011;315;48.738;9.126;2024-01-11T09:30:25;38.87;;;34.67;;
665;SDS011;315;48.738;9.126;2024-01-11T09:32:51;39.90;;;34.93;;
665;SDS011;315;48.738;9.126;2024-01-11T09:35:17;46.40;;;35.80;;
665;SDS011;315;48.738;9.126;2024-01-11T09:37:42;39.70;;;35.30;;
665;SDS011;315;48.738;9.126;2024-01-11T09:40:11;43.27;;;35.10;;
665;SDS011;315;48.738;9.126;2024-01-11T09:42:37;45.10;;;35.87;;
665;SDS011;315;48.738;9.126;2024-01-11T09:45:05;39.77;;;35.40;;
665;SDS011;315;48.738;9.126;2024-01-11T09:47:33;40.40;;;34.00;;
665;SDS011;315;48.738;9.126;2024-01-11T09:50:01;43.40;;;35.17;;
665;SDS011;315;48.738;9.126;2024-01-11T09:52:28;41.00;;;33.70;;
665;SDS011;315;48.738;9.126;2024-01-11T09:54:56;37.67;;;32.67;;
665;SDS011;315;48.738;9.126;2024-01-11T09:57:26;50.83;;;37.23;;
665;SDS011;315;48.738;9.126;2024-01-11T09:59:54;40.67;;;33.23;;
665;SDS011;315;48.738;9.126;2024-01-11T10:02:21;39.77;;;33.23;;
665;SDS011;315;48.738;9.126;2024-01-11T10:04:54;44.20;;;36.93;;
665;SDS011;315;48.738;9.126;2024-01-11T10:07:23;42.50;;;35.23;;
665;SDS011;315;48.738;9.126;2024-01-11T10:09:52;42.40;;;34.07;;
665;SDS011;315;48.738;9.126;2024-01-11T10:12:18;40.57;;;34.37;;
665;SDS011;315;48.738;9.126;2024-01-11T10:14:45;40.70;;;34.17;;
665;SDS011;315;48.738;9.126;2024-01-11T10:17:12;44.03;;;35.90;;
665;SDS011;315;48.738;9.126;2024-01-11T10:19:37;44.50;;;36.50;;
665;SDS011;315;48.738;9.126;2024-01-11T10:22:03;44.13;;;38.07;;
665;SDS011;315;48.738;9.126;2024-01-11T10:24:29;42.10;;;35.20;;
665;SDS011;315;48.738;9.126;2024-01-11T10:26:55;46.03;;;36.10;;
665;SDS011;315;48.738;9.126;2024-01-11T10:29:22;41.63;;;36.27;;
665;SDS011;315;48.738;9.126;2024-01-11T10:31:48;39.20;;;35.00;;
665;SDS011;315;48.738;9.126;2024-01-11T10:34:15;42.63;;;37.70;;
665;SDS011;315;48.738;9.126;2024-01-11T10:36:41;39.87;;;35.77;;
665;SDS011;315;48.738;9.126;2024-01-11T10:39:07;42.23;;;37.73;;
665;SDS011;315;48.738;9.126;2024-01-11T10:41:38;42.50;;;37.17;;
665;SDS011;315;48.738;9.126;2024-01-11T10:44:12;42.20;;;37.97;;
665;SDS011;315;48.738;9.126;2024-01-11T10:46:50;42.27;;;37.80;;
665;SDS011;315;48.738;9.126;2024-01-11T10:49:16;42.93;;;38.37;;
665;SDS011;315;48.738;9.126;2024-01-11T10:51:53;41.27;;;37.17;;
665;SDS011;315;48.738;9.126;2024-01-11T10:54:23;44.87;;;37.67;;
665;SDS011;315;48.738;9.126;2024-01-11T10:56:49;42.63;;;38.20;;
665;SDS011;315;48.738;9.126;2024-01-11T10:59:16;44.10;;;39.60;;
665;SDS011;315;48.738;9.126;2024-01-11T11:01:46;45.23;;;40.83;;
665;SDS011;315;48.738;9.126;2024-01-11T11:04:11;44.97;;;40.63;;
665;SDS011;315;48.738;9.126;2024-01-11T11:06:39;44.00;;;39.70;;
665;SDS011;315;48.738;9.126;2024-01-11T11:09:07;46.37;;;39.20;;
665;SDS011;315;48.738;9.126;2024-01-11T11:11:33;42.63;;;38.33;;
665;SDS011;315;48.738;9.126;2024-01-11T11:14:00;43.10;;;38.93;;
665;SDS011;315;48.738;9.126;2024-01-11T11:16:26;39.40;;;35.27;;
665;SDS011;315;48.738;9.126;2024-01-11T11:18:53;41.77;;;37.40;;
665;SDS011;315;48.738;9.126;2024-01-11T11:21:20;44.73;;;39.97;;
665;SDS011;315;48.738;9.126;2024-01-11T11:23:46;41.77;;;37.37;;
665;SDS011;315;48.738;9.126;2024-01-11T11:26:15;44.37;;;39.50;;
665;SDS011;315;48.738;9.126;2024-01-11T11:28:41;47.60;;;37.13;;
665;SDS011;315;48.738;9.126;2024-01-11T11:31:07;42.43;;;38.27;;
665;SDS011;315;48.738;9.126;2024-01-11T11:33:32;41.47;;;37.07;;
665;SDS011;315;48.738;9.126;2024-01-11T11:35:59;42.47;;;38.27;;
665;SDS011;315;48.738;9.126;2024-01-11T11:38:29;43.13;;;38.73;;
665;SDS011;315;48.738;9.126;2024-01-11T11:40:59;42.33;;;37.77;;
665;SDS011;315;48.738;9.126;2024-01-11T11:43:26;45.17;;;40.40;;
665;SDS011;315;48.738;9.126;2024-01-11T11:45:53;46.80;;;41.50;;
665;SDS011;315;48.738;9.126;2024-01-11T11:51:01;44.93;;;40.20;;
665;SDS011;315;48.738;9.126;2024-01-11T11:53:34;41.60;;;37.30;;
665;SDS011;315;48.738;9.126;2024-01-11T11:56:04;43.50;;;39.07;;
665;SDS011;315;48.738;9.126;2024-01-11T11:58:30;41.67;;;37.23;;
665;SDS011;315;48.738;9.126;2024-01-11T12:00:57;42.67;;;38.07;;
665;SDS011;315;48.738;9.126;2024-01-11T12:03:45;43.80;;;39.10;;
665;SDS011;315;48.738;9.126;2024-01-11T12:06:20;45.00;;;40.47;;
665;SDS011;315;48.738;9.126;2024-01-11T12:08:49;42.63;;;38.23;;
665;SDS011;315;48.738;9.126;2024-01-11T12:11:18;41.97;;;37.77;;
665;SDS011;315;48.738;9.126;2024-01-11T12:13:45;39.47;;;35.53;;
665;SDS011;315;48.738;9.126;2024-01-11T12:16:12;40.70;;;36.60;;
665;SDS011;315;48.738;9.126;2024-01-11T12:18:38;41.43;;;37.43;;
665;SDS011;315;48.738;9.126;2024-01-11T12:21:04;42.03;;;37.37;;
665;SDS011;315;48.738;9.126;2024-01-11T12:23:29;41.10;;;36.83;;
665;SDS011;315;48.738;9.126;2024-01-11T12:25:55;40.80;;;36.70;;
665;SDS011;315;48.738;9.126;2024-01-11T12:28:25;43.33;;;37.80;;
665;SDS011;315;48.738;9.126;2024-01-11T12:30:51;42.80;;;38.70;;
665;SDS011;315;48.738;9.126;2024-01-11T12:33:17;42.37;;;38.30;;
665;SDS011;315;48.738;9.126;2024-01-11T12:35:43;41.03;;;36.57;;
665;SDS011;315;48.738;9.126;2024-01-11T12:38:09;40.00;;;36.20;;
665;SDS011;315;48.738;9.126;2024-01-11T12:40:35;41.47;;;37.40;;
665;SDS011;315;48.738;9.126;2024-01-11T12:43:08;40.07;;;36.17;;
665;SDS011;315;48.738;9.126;2024-01-11T12:45:36;42.03;;;37.97;;
665;SDS011;315;48.738;9.126;2024-01-11T12:48:02;46.07;;;41.07;;
665;SDS011;315;48.738;9.126;2024-01-11T12:50:28;44.00;;;39.57;;
665;SDS011;315;48.738;9.126;2024-01-11T12:53:10;43.27;;;38.87;;
665;SDS011;315;48.738;9.126;2024-01-11T12:55:46;41.37;;;37.40;;
665;SDS011;315;48.738;9.126;2024-01-11T12:58:12;44.17;;;39.87;;
665;SDS011;315;48.738;9.126;2024-01-11T13:00:39;43.60;;;39.37;;
665;SDS011;315;48.738;9.126;2024-01-11T13:03:05;43.27;;;38.57;;
665;SDS011;315;48.738;9.126;2024-01-11T13:05:31;41.20;;;37.13;;
665;SDS011;315;48.738;9.126;2024-01-11T13:08:07;43.23;;;38.90;;
665;SDS011;315;48.738;9.126;2024-01-11T13:10:34;41.00;;;37.10;;
665;SDS011;315;48.738;9.126;2024-01-11T13:13:00;43.53;;;38.93;;
665;SDS011;315;48.738;9.126;2024-01-11T13:15:26;44.73;;;40.13;;
665;SDS011;315;48.738;9.126;2024-01-11T13:17:54;42.03;;;38.00;;
665;SDS011;315;48.738;9.126;2024-01-11T13:20:21;42.17;;;37.97;;
665;SDS011;315;48.738;9.126;2024-01-11T13:22:46;43.67;;;39.30;;
665;SDS011;315;48.738;9.126;2024-01-11T13:25:12;47.67;;;38.67;;
665;SDS011;315;48.738;9.126;2024-01-11T13:27:37;43.67;;;39.20;;
665;SDS011;315;48.738;9.126;2024-01-11T13:30:04;42.77;;;38.30;;
665;SDS011;315;48.738;9.126;2024-01-11T13:32:30;45.07;;;40.03;;
665;SDS011;315;48.738;9.126;2024-01-11T13:34:56;41.83;;;37.60;;
665;SDS011;315;48.738;9.126;2024-01-11T13:37:22;43.03;;;38.53;;
665;SDS011;315;48.738;9.126;2024-01-11T13:39:48;41.30;;;37.13;;
665;SDS011;315;48.738;9.126;2024-01-11T13:42:13;42.47;;;37.77;;
665;SDS011;315;48.738;9.126;2024-01-11T13:44:39;42.87;;;38.37;;
665;SDS011;315;48.738;9.126;2024-01-11T13:47:04;41.00;;;36.30;;
665;SDS011;315;48.738;9.126;2024-01-11T13:49:30;41.77;;;37.57;;
665;SDS011;315;48.738;9.126;2024-01-11T13:51:56;43.33;;;38.70;;
665;SDS011;315;48.738;9.126;2024-01-11T13:54:21;41.40;;;36.73;;
665;SDS011;315;48.738;9.126;2024-01-11T13:56:47;42.90;;;38.50;;
665;SDS011;315;48.738;9.126;2024-01-11T13:59:13;44.47;;;39.67;;
665;SDS011;315;48.738;9.126;2024-01-11T14:01:39;47.80;;;36.57;;
665;SDS011;315;48.738;9.126;2024-01-11T14:04:04;50.50;;;38.77;;
665;SDS011;315;48.738;9.126;2024-01-11T14:06:30;47.73;;;40.00;;
665;SDS011;315;48.738;9.126;2024-01-11T14:08:56;48.00;;;34.50;;
665;SDS011;315;48.738;9.126;2024-01-11T14:11:21;48.43;;;35.13;;
665;SDS011;315;48.738;9.126;2024-01-11T14:13:47;48.70;;;36.67;;
665;SDS011;315;48.738;9.126;2024-01-11T14:16:13;50.60;;;37.07;;
665;SDS011;315;48.738;9.126;2024-01-11T14:18:40;45.53;;;35.67;;
665;SDS011;315;48.738;9.126;2024-01-11T14:21:06;52.70;;;36.10;;
665;SDS011;315;48.738;9.126;2024-01-11T14:23:31;50.73;;;36.90;;
665;SDS011;315;48.738;9.126;2024-01-11T14:25:57;51.93;;;35.30;;
665;SDS011;315;48.738;9.126;2024-01-11T14:28:23;51.00;;;35.33;;
665;SDS011;315;48.738;9.126;2024-01-11T14:30:49;49.03;;;33.30;;
665;SDS011;315;48.738;9.126;2024-01-11T14:33:15;46.00;;;34.70;;
665;SDS011;315;48.738;9.126;2024-01-11T14:35:40;55.07;;;35.47;;
665;SDS011;315;48.738;9.126;2024-01-11T14:38:06;48.37;;;35.67;;
665;SDS011;315;48.738;9.126;2024-01-11T14:40:31;51.77;;;35.10;;
665;SDS011;315;48.738;9.126;2024-01-11T14:42:57;56.13;;;38.60;;
665;SDS011;315;48.738;9.126;2024-01-11T14:45:22;51.30;;;36.20;;
665;SDS011;315;48.738;9.126;2024-01-11T14:47:48;53.43;;;36.27;;
665;SDS011;315;48.738;9.126;2024-01-11T14:50:13;53.70;;;36.63;;
665;SDS011;315;48.738;9.126;2024-01-11T14:52:39;56.33;;;37.13;;
665;SDS011;315;48.738;9.126;2024-01-11T14:55:05;54.80;;;36.67;;
665;SDS011;315;48.738;9.126;2024-01-11T14:57:31;53.77;;;36.47;;
665;SDS011;315;48.738;9.126;2024-01-11T14:59:57;48.10;;;34.17;;
665;SDS011;315;48.738;9.126;2024-01-11T15:02:22;50.13;;;34.73;;
665;SDS011;315;48.738;9.126;2024-01-11T15:04:48;50.83;;;35.77;;
665;SDS011;315;48.738;9.126;2024-01-11T15:07:14;55.73;;;39.67;;
665;SDS011;315;48.738;9.126;2024-01-11T15:09:39;48.57;;;36.60;;
665;SDS011;315;48.738;9.126;2024-01-11T15:12:05;60.80;;;38.77;;
665;SDS011;315;48.738;9.126;2024-01-11T15:14:30;52.30;;;33.50;;